Time;durP1;ratioP1;P1;durP2;ratioP2;P2;SDS_P1;SDS_P2;PMS_P1;PMS_P2;Temp;Humidity;BMP_temperature;BMP_pressure;BME280_temperature;BME280_humidity;BME280_pressure;Samples;Min_cycle;Max_cycle;Signal;HPM_P1;HPM_P2
2024/02/29 00:01:31;;;;;;;48.00;25.30;;;7.40;99.90;;;;;;4990240;28;20547;-69
2024/02/29 00:03:57;;;;;;;52.37;26.13;;;7.30;99.90;;;;;;4990479;28;20037;-68
2024/02/29 00:06:22;;;;;;;48.90;26.83;;;7.30;99.90;;;;;;4990429;28;20274;-69
2024/02/29 00:08:48;;;;;;;47.83;25.43;;;7.30;99.90;;;;;;4992130;28;20040;-69
2024/02/29 00:11:14;;;;;;;48.42;24.88;;;7.40;99.90;;;;;;4989196;28;20395;-69
2024/02/29 00:13:40;;;;;;;52.50;26.50;;;7.30;99.90;;;;;;4988566;28;20077;-68
2024/02/29 00:16:05;;;;;;;52.33;27.27;;;7.30;99.90;;;;;;4989541;28;20041;-69
2024/02/29 00:18:31;;;;;;;49.40;26.57;;;7.30;99.90;;;;;;4991598;28;20061;-68
2024/02/29 00:20:56;;;;;;;49.23;24.50;;;7.20;99.90;;;;;;4989659;28;20026;-69
2024/02/29 00:23:22;;;;;;;52.57;25.57;;;7.20;99.90;;;;;;4989772;28;20507;-68
2024/02/29 00:25:48;;;;;;;51.53;26.43;;;7.20;99.90;;;;;;4989540;28;20036;-68
2024/02/29 00:28:13;;;;;;;48.97;25.50;;;7.20;99.90;;;;;;4989770;28;20490;-69
2024/02/29 00:30:39;;;;;;;50.30;25.37;;;7.10;99.90;;;;;;4989855;28;20026;-69
2024/02/29 00:33:04;;;;;;;54.67;27.20;;;7.10;99.90;;;;;;4989650;28;20026;-68
2024/02/29 00:35:31;;;;;;;49.20;26.17;;;7.00;99.90;;;;;;4989176;28;20525;-69
2024/02/29 00:37:57;;;;;;;53.55;25.13;;;6.90;99.90;;;;;;4989600;28;20027;-69
2024/02/29 00:40:23;;;;;;;48.05;25.40;;;6.80;99.90;;;;;;4989144;28;20069;-69
2024/02/29 00:42:49;;;;;;;50.42;27.38;;;6.80;99.90;;;;;;4988517;28;20060;-68
2024/02/29 00:45:15;;;;;;;49.58;25.35;;;6.70;99.90;;;;;;4989536;28;20468;-69
2024/02/29 00:47:41;;;;;;;53.17;26.77;;;6.60;99.90;;;;;;5007314;28;20057;-69
2024/02/29 00:50:07;;;;;;;52.23;27.37;;;6.60;99.90;;;;;;5009186;28;20034;-69
2024/02/29 00:52:32;;;;;;;47.28;25.50;;;6.60;99.90;;;;;;4992743;28;20093;-69
2024/02/29 00:54:58;;;;;;;54.13;28.35;;;6.60;99.90;;;;;;4989348;28;20514;-69
2024/02/29 00:57:24;;;;;;;50.35;26.63;;;6.60;99.90;;;;;;4989055;28;20553;-68
2024/02/29 00:59:50;;;;;;;60.30;27.83;;;6.70;99.90;;;;;;4988780;28;20442;-69
2024/02/29 01:02:15;;;;;;;47.55;26.08;;;6.80;99.90;;;;;;4989312;28;20499;-69
2024/02/29 01:04:41;;;;;;;54.17;27.77;;;6.80;99.90;;;;;;4989254;28;20031;-68
2024/02/29 01:07:06;;;;;;;50.07;27.27;;;6.80;99.90;;;;;;4989204;28;20487;-69
2024/02/29 01:09:32;;;;;;;49.30;27.37;;;6.80;99.90;;;;;;4987591;28;20120;-69
2024/02/29 01:11:58;;;;;;;48.37;26.10;;;6.80;99.90;;;;;;4989336;28;20031;-69
2024/02/29 01:14:23;;;;;;;52.53;27.00;;;6.90;99.90;;;;;;4988728;28;20451;-68
2024/02/29 01:16:49;;;;;;;49.73;26.90;;;6.90;99.90;;;;;;4988717;28;20113;-69
2024/02/29 01:19:15;;;;;;;51.50;26.90;;;6.90;99.90;;;;;;5004107;28;20030;-68
2024/02/29 01:21:41;;;;;;;51.63;27.42;;;6.80;99.90;;;;;;5008355;28;20025;-68
2024/02/29 01:24:07;;;;;;;53.97;27.58;;;6.90;99.90;;;;;;5007988;28;20091;-69
2024/02/29 01:26:33;;;;;;;54.83;28.17;;;6.90;99.90;;;;;;5008871;28;20025;-69
2024/02/29 01:28:59;;;;;;;47.53;26.27;;;6.90;99.90;;;;;;5009162;28;20071;-69
2024/02/29 01:31:25;;;;;;;50.05;27.10;;;6.90;99.90;;;;;;5008267;28;20037;-69
2024/02/29 01:33:50;;;;;;;59.55;27.30;;;6.80;99.90;;;;;;5008062;28;20034;-68
2024/02/29 01:36:16;;;;;;;51.57;26.87;;;6.80;99.90;;;;;;5008013;28;20046;-69
2024/02/29 01:38:42;;;;;;;50.77;27.83;;;6.80;99.90;;;;;;5007900;28;20044;-68
2024/02/29 01:41:07;;;;;;;60.43;26.57;;;6.80;99.90;;;;;;5007876;28;20413;-69
2024/02/29 01:43:34;;;;;;;49.47;25.87;;;6.90;99.90;;;;;;5006859;28;20045;-68
2024/02/29 01:46:13;;;;;;;51.75;26.58;;;6.90;99.90;;;;;;5008504;28;20136;-68
2024/02/29 01:48:39;;;;;;;58.72;27.05;;;6.90;99.90;;;;;;5008110;28;20033;-69
2024/02/29 01:51:05;;;;;;;48.60;26.02;;;6.90;99.90;;;;;;5008262;28;20438;-69
2024/02/29 01:53:32;;;;;;;50.15;25.63;;;6.80;99.90;;;;;;4997518;28;20030;-69
2024/02/29 01:55:58;;;;;;;52.53;26.70;;;6.80;99.90;;;;;;5003590;28;20089;-69
2024/02/29 01:58:23;;;;;;;52.67;26.63;;;6.80;99.90;;;;;;5003250;28;20811;-69
2024/02/29 02:00:49;;;;;;;51.65;27.40;;;6.80;99.90;;;;;;4988140;28;20395;-69
2024/02/29 02:03:15;;;;;;;50.60;25.63;;;6.80;99.90;;;;;;4988240;28;20034;-69
2024/02/29 02:05:41;;;;;;;53.87;27.53;;;6.80;99.90;;;;;;5003329;28;20030;-69
2024/02/29 02:08:07;;;;;;;52.60;26.10;;;6.80;99.90;;;;;;4987953;28;20629;-69
2024/02/29 02:10:33;;;;;;;58.58;26.63;;;6.80;99.90;;;;;;4988023;28;20108;-68
2024/02/29 02:12:59;;;;;;;53.78;25.92;;;6.80;99.90;;;;;;4996131;28;20422;-69
2024/02/29 02:15:24;;;;;;;51.30;24.35;;;6.80;99.90;;;;;;5007585;28;20046;-69
2024/02/29 02:17:50;;;;;;;54.70;26.03;;;6.70;99.90;;;;;;5006260;28;20449;-69
2024/02/29 02:20:17;;;;;;;51.37;25.73;;;6.70;99.90;;;;;;5007675;28;20026;-69
2024/02/29 02:22:43;;;;;;;48.10;26.13;;;6.70;99.90;;;;;;5008273;28;20034;-69
2024/02/29 02:25:09;;;;;;;49.40;25.60;;;6.80;99.90;;;;;;5008709;28;20393;-69
2024/02/29 02:27:36;;;;;;;54.17;25.33;;;6.70;99.90;;;;;;5008968;28;20025;-69
2024/02/29 02:30:06;;;;;;;56.03;25.92;;;6.70;99.90;;;;;;5007011;28;20034;-69
2024/02/29 02:32:33;;;;;;;51.42;26.40;;;6.70;99.90;;;;;;5007886;28;20041;-68
2024/02/29 02:34:59;;;;;;;;;;;6.70;99.90;;;;;;5008446;28;20065;-68
2024/02/29 02:37:24;;;;;;;50.40;26.98;;;6.70;99.90;;;;;;5006982;28;20372;-69
2024/02/29 02:39:50;;;;;;;52.83;25.93;;;6.60;99.90;;;;;;5002185;28;20561;-68
2024/02/29 02:42:15;;;;;;;60.20;27.17;;;6.70;99.90;;;;;;5007442;28;20042;-68
2024/02/29 02:44:41;;;;;;;46.60;25.43;;;6.70;99.90;;;;;;4997612;28;20046;-69
2024/02/29 02:47:06;;;;;;;51.77;25.13;;;6.60;99.90;;;;;;4987516;28;20027;-69
2024/02/29 02:49:32;;;;;;;53.20;26.97;;;6.60;99.90;;;;;;4988063;28;20409;-69
2024/02/29 02:51:58;;;;;;;50.90;25.77;;;6.60;99.90;;;;;;4988261;28;20475;-69
2024/02/29 02:54:23;;;;;;;49.97;25.73;;;6.70;99.90;;;;;;4987574;28;20030;-68
2024/02/29 02:56:49;;;;;;;59.40;26.37;;;6.70;99.90;;;;;;4986493;28;20506;-68
2024/02/29 02:59:15;;;;;;;48.90;26.13;;;6.70;99.90;;;;;;4987534;28;20062;-70
2024/02/29 03:01:40;;;;;;;49.33;24.45;;;6.60;99.90;;;;;;4987601;28;20037;-69
2024/02/29 03:04:06;;;;;;;53.23;26.00;;;6.60;99.90;;;;;;4987415;28;20506;-69
2024/02/29 03:06:31;;;;;;;50.07;28.00;;;6.70;99.90;;;;;;4987988;28;20085;-69
2024/02/29 03:08:57;;;;;;;55.07;27.27;;;6.70;99.90;;;;;;4987606;28;20061;-69
2024/02/29 03:11:23;;;;;;;52.53;24.60;;;6.70;99.90;;;;;;4987359;28;20264;-69
2024/02/29 03:13:48;;;;;;;49.70;26.47;;;6.60;99.90;;;;;;4987204;28;20026;-69
2024/02/29 03:16:23;;;;;;;56.17;27.47;;;6.70;99.90;;;;;;4987223;28;20185;-69
2024/02/29 03:18:49;;;;;;;58.35;28.20;;;6.60;99.90;;;;;;4987505;28;20022;-68
2024/02/29 03:21:15;;;;;;;58.60;30.30;;;6.70;99.90;;;;;;4987168;28;20030;-69
2024/02/29 03:23:41;;;;;;;53.20;28.08;;;6.60;99.90;;;;;;4985955;28;20037;-69
2024/02/29 03:26:06;;;;;;;59.15;29.15;;;6.60;99.90;;;;;;4987237;28;20031;-69
2024/02/29 03:28:32;;;;;;;56.17;27.90;;;6.60;99.90;;;;;;5002709;28;20126;-69
2024/02/29 03:30:59;;;;;;;52.50;27.48;;;6.60;99.90;;;;;;4987451;28;20022;-69
2024/02/29 03:33:25;;;;;;;54.25;28.92;;;6.60;99.90;;;;;;4987228;28;20046;-69
2024/02/29 03:35:51;;;;;;;50.37;27.30;;;6.60;99.90;;;;;;4987120;28;20104;-69
2024/02/29 03:38:17;;;;;;;56.72;27.60;;;6.60;99.90;;;;;;4986867;28;20049;-69
2024/02/29 03:40:43;;;;;;;;;;;6.60;99.90;;;;;;4987257;28;20049;-69
2024/02/29 03:43:08;;;;;;;49.95;26.88;;;6.60;99.90;;;;;;4985735;28;20388;-69
2024/02/29 03:45:34;;;;;;;53.13;26.07;;;6.60;99.90;;;;;;4987893;28;20034;-69
2024/02/29 03:47:59;;;;;;;53.20;25.57;;;6.60;99.90;;;;;;4989680;28;20030;-69
2024/02/29 03:50:26;;;;;;;55.33;27.50;;;6.50;99.90;;;;;;4990798;28;20884;-69
2024/02/29 03:52:51;;;;;;;49.22;25.20;;;6.50;99.90;;;;;;4990832;28;20061;-69
2024/02/29 03:55:17;;;;;;;59.47;29.85;;;6.50;99.90;;;;;;4990503;28;20073;-69
2024/02/29 03:57:43;;;;;;;55.87;28.80;;;6.60;99.90;;;;;;4990519;28;20034;-69
2024/02/29 04:00:11;;;;;;;55.50;27.40;;;6.50;99.90;;;;;;4990573;28;20283;-69
2024/02/29 04:02:37;;;;;;;61.10;29.55;;;6.50;99.90;;;;;;4989925;28;20050;-69
2024/02/29 04:05:07;;;;;;;;;;;6.50;99.90;;;;;;5006207;28;20025;-69
2024/02/29 04:07:37;;;;;;;58.20;29.10;;;6.50;99.90;;;;;;5009979;28;19916;-69
2024/02/29 04:10:04;;;;;;;56.70;27.73;;;6.50;99.90;;;;;;5010521;28;20043;-69
2024/02/29 04:12:30;;;;;;;51.92;27.48;;;6.50;99.90;;;;;;5009965;28;20108;-69
2024/02/29 04:14:56;;;;;;;55.00;27.10;;;6.40;99.90;;;;;;5006512;28;20050;-69
2024/02/29 04:17:22;;;;;;;58.45;27.80;;;6.40;99.90;;;;;;5009368;28;20829;-69
2024/02/29 04:19:49;;;;;;;51.50;27.97;;;6.40;99.90;;;;;;5009675;28;20030;-69
2024/02/29 04:22:15;;;;;;;50.83;26.65;;;6.40;99.90;;;;;;5008102;28;20265;-69
2024/02/29 04:24:40;;;;;;;61.55;29.23;;;6.40;99.90;;;;;;5009520;28;20038;-69
2024/02/29 04:27:06;;;;;;;58.53;29.53;;;6.40;99.90;;;;;;5009249;28;20148;-69
2024/02/29 04:29:32;;;;;;;54.83;27.77;;;6.40;99.90;;;;;;5009861;28;20277;-69
2024/02/29 04:31:58;;;;;;;54.90;28.75;;;6.40;99.90;;;;;;5008230;28;20022;-69
2024/02/29 04:34:24;;;;;;;54.08;27.88;;;6.40;99.90;;;;;;5009094;28;20552;-69
2024/02/29 04:36:50;;;;;;;55.15;26.83;;;6.40;99.90;;;;;;5009353;28;20034;-69
2024/02/29 04:39:16;;;;;;;55.15;26.95;;;6.40;99.90;;;;;;5005736;28;20406;-69
2024/02/29 04:41:41;;;;;;;48.78;25.23;;;6.40;99.90;;;;;;4992119;28;20042;-69
2024/02/29 04:44:07;;;;;;;56.20;27.10;;;6.40;99.90;;;;;;4997521;28;20137;-69
2024/02/29 04:46:33;;;;;;;61.67;27.75;;;6.30;99.90;;;;;;4989762;28;20529;-70
2024/02/29 04:48:59;;;;;;;59.30;26.80;;;6.30;99.90;;;;;;4999896;28;20450;-70
2024/02/29 04:51:24;;;;;;;48.58;24.90;;;6.30;99.90;;;;;;5007907;28;20034;-68
2024/02/29 04:53:50;;;;;;;56.90;27.27;;;6.40;99.90;;;;;;5006173;28;20045;-68
2024/02/29 04:56:16;;;;;;;53.03;27.93;;;6.30;99.90;;;;;;4992929;28;20034;-69
2024/02/29 04:58:42;;;;;;;54.63;27.55;;;6.30;99.90;;;;;;5004148;28;20122;-68
2024/02/29 05:01:07;;;;;;;49.42;27.02;;;6.20;99.90;;;;;;5002713;28;20033;-69
2024/02/29 05:03:33;;;;;;;53.30;27.87;;;6.30;99.90;;;;;;4996873;28;20036;-68
2024/02/29 05:05:59;;;;;;;56.75;27.55;;;6.20;99.90;;;;;;5004764;28;20039;-69
2024/02/29 05:08:25;;;;;;;53.45;29.38;;;6.30;99.90;;;;;;5004718;28;20718;-68
2024/02/29 05:10:53;;;;;;;57.95;27.67;;;6.20;99.90;;;;;;5007536;28;20656;-68
2024/02/29 05:13:19;;;;;;;49.33;25.27;;;6.30;99.90;;;;;;5001558;28;20437;-68
2024/02/29 05:15:44;;;;;;;51.90;27.80;;;6.20;99.90;;;;;;4997049;28;20039;-69
2024/02/29 05:18:10;;;;;;;55.33;27.27;;;6.10;99.90;;;;;;4994857;28;20026;-68
2024/02/29 05:20:36;;;;;;;60.67;29.05;;;6.00;99.90;;;;;;4998590;28;20033;-69
2024/02/29 05:23:02;;;;;;;54.70;29.30;;;6.00;99.90;;;;;;4997966;28;20046;-68
2024/02/29 05:25:28;;;;;;;55.90;27.50;;;6.00;99.90;;;;;;5004796;28;20143;-68
2024/02/29 05:27:54;;;;;;;58.00;29.30;;;6.00;99.90;;;;;;4995274;28;20034;-69
2024/02/29 05:30:20;;;;;;;52.80;28.10;;;6.00;99.90;;;;;;4997359;28;20029;-68
2024/02/29 05:32:48;;;;;;;57.67;29.27;;;6.10;99.90;;;;;;5008021;28;20034;-69
2024/02/29 05:35:14;;;;;;;58.38;28.45;;;6.10;99.90;;;;;;5003398;28;20038;-70
2024/02/29 05:37:40;;;;;;;58.08;29.60;;;6.10;99.90;;;;;;5003079;28;20026;-69
2024/02/29 05:40:07;;;;;;;62.88;29.58;;;6.00;99.90;;;;;;5003835;28;20034;-69
2024/02/29 05:42:33;;;;;;;55.70;28.75;;;6.00;99.90;;;;;;4993648;28;20041;-68
2024/02/29 05:44:59;;;;;;;59.40;29.25;;;5.90;99.90;;;;;;5000943;28;20109;-68
2024/02/29 05:47:25;;;;;;;56.70;27.50;;;5.90;99.90;;;;;;5007746;28;20570;-69
2024/02/29 05:49:51;;;;;;;56.20;29.33;;;5.90;99.90;;;;;;5000187;28;20039;-69
2024/02/29 05:52:19;;;;;;;54.33;28.87;;;5.90;99.90;;;;;;4998135;28;20450;-67
2024/02/29 05:54:45;;;;;;;59.80;29.13;;;5.80;99.90;;;;;;4999197;28;20042;-68
2024/02/29 05:57:10;;;;;;;59.63;28.97;;;5.80;99.90;;;;;;4998819;28;20033;-69
2024/02/29 05:59:36;;;;;;;53.63;29.00;;;5.70;99.90;;;;;;5001573;28;20041;-68
2024/02/29 06:02:02;;;;;;;62.63;28.37;;;5.60;99.90;;;;;;5009815;28;20089;-68
2024/02/29 06:04:27;;;;;;;64.43;30.10;;;5.50;99.90;;;;;;5002746;28;20113;-68
2024/02/29 06:06:53;;;;;;;61.47;29.10;;;5.50;99.90;;;;;;4996938;28;20049;-68
2024/02/29 06:09:18;;;;;;;62.20;30.13;;;5.40;99.90;;;;;;5001335;28;20031;-69
2024/02/29 06:11:44;;;;;;;56.88;29.48;;;5.40;99.90;;;;;;5000205;28;20091;-68
2024/02/29 06:14:10;;;;;;;56.20;29.13;;;5.30;99.90;;;;;;5000981;28;20439;-69
2024/02/29 06:16:36;;;;;;;55.25;27.60;;;5.30;99.90;;;;;;5001721;28;20033;-69
2024/02/29 06:19:01;;;;;;;59.27;28.53;;;5.30;99.90;;;;;;5006502;28;20064;-70
2024/02/29 06:21:27;;;;;;;66.63;31.33;;;5.20;99.90;;;;;;5000844;28;20114;-69
2024/02/29 06:23:54;;;;;;;60.95;29.58;;;5.20;99.90;;;;;;5002425;28;20513;-69
2024/02/29 06:26:19;;;;;;;62.53;31.95;;;5.10;99.90;;;;;;4998347;28;20093;-69
2024/02/29 06:28:46;;;;;;;61.33;30.83;;;5.10;99.90;;;;;;5005771;28;20121;-69
2024/02/29 06:31:12;;;;;;;59.67;30.42;;;5.10;99.90;;;;;;5001455;28;20339;-69
2024/02/29 06:33:38;;;;;;;59.03;29.90;;;5.20;99.90;;;;;;5000141;28;20034;-69
2024/02/29 06:36:04;;;;;;;70.00;29.92;;;5.30;99.90;;;;;;5007446;28;20065;-70
2024/02/29 06:38:30;;;;;;;61.45;29.90;;;5.30;99.90;;;;;;5005209;28;20042;-70
2024/02/29 06:40:55;;;;;;;63.10;29.52;;;5.40;99.90;;;;;;5012912;28;20052;-70
2024/02/29 06:43:21;;;;;;;62.23;30.00;;;5.50;99.90;;;;;;5003967;28;20038;-70
2024/02/29 06:45:49;;;;;;;59.05;30.92;;;5.50;99.90;;;;;;4994730;28;20276;-70
2024/02/29 06:48:16;;;;;;;61.72;31.42;;;5.60;99.90;;;;;;4996114;28;20040;-70
2024/02/29 06:50:42;;;;;;;68.60;33.05;;;5.70;99.90;;;;;;5003743;28;20088;-70
2024/02/29 06:53:09;;;;;;;60.20;28.85;;;5.70;99.90;;;;;;4997623;28;20026;-70
2024/02/29 06:55:34;;;;;;;;;;;5.80;99.90;;;;;;4999309;28;20401;-70
2024/02/29 06:58:02;;;;;;;61.65;29.63;;;5.80;99.90;;;;;;4999361;28;19914;-70
2024/02/29 07:00:28;;;;;;;59.13;29.65;;;5.80;99.90;;;;;;5000184;28;20033;-69
2024/02/29 07:02:55;;;;;;;61.28;30.63;;;5.90;99.90;;;;;;5001336;28;20260;-70
2024/02/29 07:05:21;;;;;;;63.78;29.55;;;6.00;99.90;;;;;;4996189;28;20041;-70
2024/02/29 07:07:48;;;;;;;57.28;29.85;;;6.00;99.90;;;;;;5002005;28;20497;-70
2024/02/29 07:10:14;;;;;;;57.30;29.02;;;6.00;99.90;;;;;;4993318;28;20060;-69
2024/02/29 07:12:40;;;;;;;60.33;29.03;;;6.10;99.90;;;;;;5003601;28;20034;-70
2024/02/29 07:15:06;;;;;;;58.47;29.73;;;6.10;99.90;;;;;;5001834;28;20038;-70
2024/02/29 07:17:32;;;;;;;57.47;29.63;;;6.20;99.90;;;;;;5002353;28;20042;-70
2024/02/29 07:19:58;;;;;;;63.95;31.38;;;6.30;99.90;;;;;;4992811;28;20041;-70
2024/02/29 07:22:24;;;;;;;56.92;29.25;;;6.30;99.90;;;;;;5006935;28;20830;-70
2024/02/29 07:24:50;;;;;;;62.00;29.80;;;6.30;99.90;;;;;;5001584;28;20064;-70
2024/02/29 07:27:16;;;;;;;61.80;28.83;;;6.40;99.90;;;;;;5005724;28;20105;-71
2024/02/29 07:29:41;;;;;;;75.47;31.00;;;6.40;99.90;;;;;;5004547;28;20293;-71
2024/02/29 07:32:07;;;;;;;55.87;28.80;;;6.50;99.90;;;;;;4997008;28;20070;-70
2024/02/29 07:34:34;;;;;;;54.05;28.23;;;6.50;99.90;;;;;;4999273;28;20127;-69
2024/02/29 07:36:59;;;;;;;65.38;30.35;;;6.50;99.90;;;;;;5001956;28;20029;-69
2024/02/29 07:39:25;;;;;;;63.43;30.70;;;6.50;99.90;;;;;;5005343;28;20035;-70
2024/02/29 07:41:51;;;;;;;58.30;29.93;;;6.50;99.90;;;;;;5009035;28;20324;-69
2024/02/29 07:44:16;;;;;;;59.33;29.13;;;6.50;99.90;;;;;;5000189;28;20032;-71
2024/02/29 07:46:42;;;;;;;61.90;29.83;;;6.50;99.90;;;;;;5002843;28;20042;-69
2024/02/29 07:49:08;;;;;;;62.50;29.53;;;6.50;99.90;;;;;;5002952;28;20033;-70
2024/02/29 07:51:33;;;;;;;61.60;29.80;;;6.50;99.90;;;;;;5001966;28;20494;-69
2024/02/29 07:53:59;;;;;;;62.93;30.90;;;6.60;99.90;;;;;;4992328;28;20034;-68
2024/02/29 07:56:24;;;;;;;57.90;30.57;;;6.60;99.90;;;;;;4992122;28;20633;-68
2024/02/29 07:58:50;;;;;;;61.37;29.70;;;6.70;99.90;;;;;;5009573;28;20033;-69
2024/02/29 08:01:16;;;;;;;60.77;28.87;;;6.60;99.90;;;;;;4994398;28;20502;-69
2024/02/29 08:03:41;;;;;;;62.53;29.83;;;6.70;99.90;;;;;;4999176;28;20058;-69
2024/02/29 08:06:07;;;;;;;55.17;28.60;;;6.80;99.90;;;;;;4999329;28;20031;-70
2024/02/29 08:08:33;;;;;;;63.10;30.38;;;6.80;99.90;;;;;;5000749;28;20038;-69
2024/02/29 08:10:59;;;;;;;57.00;30.03;;;6.90;99.90;;;;;;5000733;28;20030;-70
2024/02/29 08:13:25;;;;;;;52.40;28.73;;;6.90;99.90;;;;;;4999325;28;20064;-70
2024/02/29 08:15:50;;;;;;;55.67;30.75;;;6.90;99.90;;;;;;4999343;28;20107;-69
2024/02/29 08:18:16;;;;;;;62.13;32.23;;;6.90;99.90;;;;;;5002758;28;20059;-71
2024/02/29 08:20:45;;;;;;;59.30;30.85;;;6.90;99.90;;;;;;4999003;28;20501;-71
2024/02/29 08:23:15;;;;;;;59.38;30.77;;;7.00;99.90;;;;;;4998284;28;20537;-69
2024/02/29 08:25:41;;;;;;;56.38;29.70;;;7.10;99.90;;;;;;4995795;28;20037;-69
2024/02/29 08:28:07;;;;;;;60.40;30.13;;;7.00;99.90;;;;;;4997309;28;20080;-69
2024/02/29 08:30:33;;;;;;;60.60;29.97;;;7.00;99.90;;;;;;5003013;28;20046;-69
2024/02/29 08:32:59;;;;;;;54.97;29.20;;;7.00;99.90;;;;;;4998948;28;20072;-69
2024/02/29 08:35:24;;;;;;;54.45;29.52;;;7.00;99.90;;;;;;5002344;28;20117;-69
2024/02/29 08:37:50;;;;;;;55.43;29.57;;;7.00;99.90;;;;;;4992520;28;20034;-69
2024/02/29 08:40:16;;;;;;;62.03;29.47;;;7.00;99.90;;;;;;4998964;28;20684;-69
2024/02/29 08:42:42;;;;;;;55.17;28.95;;;7.00;99.90;;;;;;5004466;28;20227;-69
2024/02/29 08:45:11;;;;;;;53.87;28.47;;;7.00;99.90;;;;;;5004689;28;20529;-68
2024/02/29 08:47:37;;;;;;;56.35;29.23;;;7.00;99.90;;;;;;5002948;28;20287;-69
2024/02/29 08:50:03;;;;;;;59.50;30.33;;;7.10;99.90;;;;;;4996648;28;20113;-68
2024/02/29 08:52:31;;;;;;;57.10;28.90;;;7.20;99.90;;;;;;5000743;28;20065;-69
2024/02/29 08:54:57;;;;;;;62.08;29.58;;;7.20;99.90;;;;;;5007553;28;20029;-69
2024/02/29 08:57:23;;;;;;;56.55;29.10;;;7.20;99.90;;;;;;4999223;28;20597;-69
2024/02/29 08:59:48;;;;;;;62.43;30.50;;;7.10;99.90;;;;;;4999517;28;20516;-69
2024/02/29 09:02:14;;;;;;;60.33;30.27;;;7.10;99.90;;;;;;4997559;28;20185;-69
2024/02/29 09:04:40;;;;;;;55.08;29.42;;;7.20;99.90;;;;;;5006593;28;20140;-69
2024/02/29 09:07:05;;;;;;;53.00;26.97;;;7.20;99.90;;;;;;4995896;28;20034;-66
2024/02/29 09:09:31;;;;;;;53.07;29.30;;;7.20;99.90;;;;;;4993496;28;20034;-70
2024/02/29 09:11:57;;;;;;;60.57;31.17;;;7.30;99.90;;;;;;4999784;28;20046;-69
2024/02/29 09:14:22;;;;;;;58.75;30.25;;;7.30;99.90;;;;;;4999149;28;20117;-69
2024/02/29 09:16:48;;;;;;;55.67;28.40;;;7.40;99.90;;;;;;4991703;28;20169;-68
2024/02/29 09:19:13;;;;;;;58.10;30.10;;;7.40;99.90;;;;;;4999835;28;20048;-69
2024/02/29 09:21:40;;;;;;;56.27;27.93;;;7.40;99.90;;;;;;4999809;28;20057;-70
2024/02/29 09:24:06;;;;;;;56.47;27.83;;;7.40;99.90;;;;;;5003549;28;20312;-69
2024/02/29 09:26:32;;;;;;;57.17;28.80;;;7.40;99.90;;;;;;5002041;28;20046;-70
2024/02/29 09:28:58;;;;;;;61.03;28.92;;;7.40;99.90;;;;;;4995456;28;20028;-70
2024/02/29 09:31:24;;;;;;;57.92;29.15;;;7.50;99.90;;;;;;5003824;28;20034;-70
2024/02/29 09:33:49;;;;;;;62.30;28.27;;;7.40;99.90;;;;;;4998470;28;20097;-70
2024/02/29 09:36:16;;;;;;;53.72;28.30;;;7.50;99.90;;;;;;5014497;28;20522;-71
2024/02/29 09:38:42;;;;;;;59.80;30.15;;;7.50;99.90;;;;;;4991270;28;20450;-71
2024/02/29 09:41:12;;;;;;;59.43;29.20;;;7.60;99.90;;;;;;4995958;28;20096;-71
2024/02/29 09:43:40;;;;;;;54.30;27.85;;;7.50;99.90;;;;;;4999187;28;20068;-70
2024/02/29 09:46:06;;;;;;;55.88;29.05;;;7.50;99.90;;;;;;4996385;28;20568;-70
2024/02/29 09:48:35;;;;;;;57.85;30.13;;;7.50;99.90;;;;;;4998392;28;20073;-71
2024/02/29 09:51:01;;;;;;;56.22;28.75;;;7.60;99.90;;;;;;5002099;28;20027;-70
2024/02/29 09:53:28;;;;;;;54.08;28.35;;;7.60;99.90;;;;;;5001850;28;20137;-70
2024/02/29 09:55:57;;;;;;;57.67;29.63;;;7.60;99.90;;;;;;4999174;28;20133;-70
2024/02/29 09:58:25;;;;;;;55.70;28.33;;;7.60;99.90;;;;;;5001183;28;20052;-69
2024/02/29 10:00:50;;;;;;;56.53;27.85;;;7.80;99.90;;;;;;4995118;28;20022;-69
2024/02/29 10:03:16;;;;;;;51.30;27.63;;;7.90;99.90;;;;;;4999009;28;20056;-68
2024/02/29 10:05:46;;;;;;;64.03;28.90;;;7.90;99.90;;;;;;5000935;28;20037;-70
2024/02/29 10:08:12;;;;;;;59.05;29.50;;;7.90;99.90;;;;;;4995823;28;20088;-69
2024/02/29 10:10:38;;;;;;;55.22;26.25;;;7.90;99.90;;;;;;5002730;28;20049;-68
2024/02/29 10:13:06;;;;;;;56.65;29.65;;;7.90;99.90;;;;;;4997126;28;20263;-68
2024/02/29 10:15:32;;;;;;;58.33;29.92;;;7.90;99.90;;;;;;5000128;28;20030;-69
2024/02/29 10:17:58;;;;;;;58.30;28.13;;;7.90;99.90;;;;;;4998631;28;20703;-68
2024/02/29 10:20:25;;;;;;;57.03;27.15;;;7.90;99.90;;;;;;4999037;28;20039;-68
2024/02/29 10:22:53;;;;;;;48.85;26.95;;;8.00;99.90;;;;;;5001275;28;20030;-70
2024/02/29 10:25:20;;;;;;;59.53;28.85;;;8.00;99.90;;;;;;4990038;28;20038;-68
2024/02/29 10:27:45;;;;;;;58.75;28.60;;;8.10;99.90;;;;;;5000499;28;20037;-71
2024/02/29 10:30:16;;;;;;;55.13;29.30;;;8.20;99.90;;;;;;5000216;28;20026;-69
2024/02/29 10:32:42;;;;;;;63.53;28.73;;;8.20;99.90;;;;;;4997097;28;20041;-69
2024/02/29 10:35:17;;;;;;;54.85;26.63;;;8.20;99.90;;;;;;4991527;28;20054;-71
2024/02/29 10:37:43;;;;;;;59.13;29.77;;;8.30;99.90;;;;;;4994939;28;20103;-69
2024/02/29 10:40:09;;;;;;;56.08;28.30;;;8.30;99.90;;;;;;4996132;28;20030;-70
2024/02/29 10:42:39;;;;;;;58.53;27.30;;;8.40;99.90;;;;;;4998374;28;20042;-70
2024/02/29 10:45:16;;;;;;;61.08;29.13;;;8.50;99.90;;;;;;4998398;28;20106;-70
2024/02/29 10:47:52;;;;;;;54.85;28.48;;;8.60;99.90;;;;;;4999942;28;20030;-71
2024/02/29 10:50:24;;;;;;;59.15;28.50;;;8.70;99.90;;;;;;5009384;28;20040;-70
2024/02/29 10:53:19;;;;;;;58.17;29.00;;;8.90;99.90;;;;;;5003713;28;20507;-68
2024/02/29 10:55:50;;;;;;;56.15;27.45;;;9.10;99.90;;;;;;4998679;28;20064;-68
2024/02/29 10:58:25;;;;;;;51.60;27.13;;;9.20;99.90;;;;;;4998062;28;20022;-69
2024/02/29 11:00:52;;;;;;;61.22;30.38;;;9.40;99.90;;;;;;5010767;28;20035;-68
2024/02/29 11:03:18;;;;;;;;;;;9.40;99.10;;;;;;5005625;28;20191;-68
2024/02/29 11:05:45;;;;;;;57.30;28.85;;;9.60;99.20;;;;;;5008673;28;19987;-71
2024/02/29 11:08:12;;;;;;;49.75;27.98;;;9.80;98.30;;;;;;5004854;28;20029;-71
2024/02/29 11:10:38;;;;;;;56.72;28.45;;;9.60;98.20;;;;;;5005025;28;20031;-72
2024/02/29 11:13:04;;;;;;;51.03;27.35;;;10.00;98.80;;;;;;5008662;28;20036;-67
2024/02/29 11:15:30;;;;;;;58.55;26.92;;;9.20;96.90;;;;;;5006560;28;20042;-70
2024/02/29 11:17:57;;;;;;;52.40;26.25;;;9.30;97.70;;;;;;5006276;28;20112;-68
2024/02/29 11:20:24;;;;;;;50.03;26.02;;;9.60;98.00;;;;;;5009787;28;20040;-69
2024/02/29 11:23:02;;;;;;;52.80;26.67;;;10.00;98.20;;;;;;5003413;28;20071;-67
2024/02/29 11:25:30;;;;;;;47.60;26.85;;;9.90;96.20;;;;;;5004422;28;20038;-71
2024/02/29 11:27:55;;;;;;;52.83;27.13;;;9.90;96.30;;;;;;5004245;28;20085;-69
2024/02/29 11:30:23;;;;;;;51.47;28.27;;;9.90;96.40;;;;;;4997300;28;20534;-68
2024/02/29 11:32:50;;;;;;;51.10;26.30;;;10.30;96.90;;;;;;4120202;28;10000879;-69
2024/02/29 11:35:17;;;;;;;50.47;26.33;;;10.50;96.70;;;;;;5002477;28;20045;-70
2024/02/29 11:37:46;;;;;;;50.00;27.83;;;10.60;96.10;;;;;;5001264;28;20121;-70
2024/02/29 11:40:15;;;;;;;52.80;26.42;;;10.50;96.70;;;;;;4999778;28;20042;-70
2024/02/29 11:42:41;;;;;;;54.28;27.40;;;10.70;95.80;;;;;;5001304;28;20030;-70
2024/02/29 11:45:08;;;;;;;51.03;26.03;;;10.70;94.60;;;;;;4999186;28;20374;-70
2024/02/29 11:47:34;;;;;;;51.53;26.00;;;10.70;94.00;;;;;;5005434;28;20029;-70
2024/02/29 11:50:00;;;;;;;49.20;25.55;;;10.60;94.20;;;;;;4980729;28;20038;-70
2024/02/29 11:52:26;;;;;;;;;;;10.60;93.30;;;;;;4999288;28;20038;-70
2024/02/29 11:54:52;;;;;;;51.92;26.50;;;10.10;93.10;;;;;;5002808;28;20529;-71
2024/02/29 11:57:18;;;;;;;49.25;26.70;;;10.10;94.20;;;;;;5004033;28;20095;-70
2024/02/29 11:59:44;;;;;;;49.38;26.52;;;9.90;94.10;;;;;;5009153;28;20057;-69
2024/02/29 12:02:10;;;;;;;46.45;25.95;;;9.70;94.40;;;;;;5006948;28;20073;-69
2024/02/29 12:04:36;;;;;;;51.13;25.58;;;9.80;95.70;;;;;;5003175;28;20038;-70
2024/02/29 12:07:02;;;;;;;55.22;26.92;;;9.90;97.00;;;;;;5003535;28;20033;-69
2024/02/29 12:09:32;;;;;;;49.15;25.50;;;9.70;95.50;;;;;;5008734;28;20548;-70
2024/02/29 12:11:58;;;;;;;53.53;26.25;;;10.00;97.60;;;;;;5004913;28;20033;-70
2024/02/29 12:14:23;;;;;;;50.78;26.02;;;10.00;96.70;;;;;;5005191;28;20394;-70
2024/02/29 12:16:49;;;;;;;47.30;25.80;;;10.00;96.00;;;;;;5003394;28;20046;-70
2024/02/29 12:19:16;;;;;;;49.67;27.05;;;9.80;95.30;;;;;;5002980;28;20034;-69
2024/02/29 12:21:42;;;;;;;54.15;28.08;;;9.90;96.60;;;;;;5003980;28;20566;-70
2024/02/29 12:24:09;;;;;;;;;;;9.90;96.90;;;;;;5006175;28;20083;-70
2024/02/29 12:26:37;;;;;;;51.90;27.88;;;10.00;97.00;;;;;;5006614;28;19909;-70
2024/02/29 12:29:05;;;;;;;47.55;25.50;;;9.90;96.70;;;;;;5009514;28;20041;-70
2024/02/29 12:31:31;;;;;;;49.10;24.65;;;10.00;96.70;;;;;;5005416;28;20416;-70
2024/02/29 12:34:00;;;;;;;51.00;26.37;;;10.10;97.20;;;;;;5001424;28;20037;-70